sensor_id;sensor_type;location;lat;lon;timestamp;temperature;humidity
28837;DHT22;50669;50.982;11.022;2023-08-06T00:01:27;22.90;75.90
28837;DHT22;50669;50.982;11.022;2023-08-06T00:03:53;22.90;75.90
28837;DHT22;50669;50.982;11.022;2023-08-06T00:06:18;22.90;75.90
28837;DHT22;50669;50.982;11.022;2023-08-06T00:08:44;22.90;75.90
28837;DHT22;50669;50.982;11.022;2023-08-06T00:11:09;22.90;75.90
28837;DHT22;50669;50.982;11.022;2023-08-06T00:13:35;22.90;75.90
28837;DHT22;50669;50.982;11.022;2023-08-06T00:16:11;22.90;75.90
28837;DHT22;50669;50.982;11.022;2023-08-06T00:18:37;22.90;75.90
28837;DHT22;50669;50.982;11.022;2023-08-06T00:21:03;22.90;75.90
28837;DHT22;50669;50.982;11.022;2023-08-06T00:23:30;22.90;75.90
28837;DHT22;50669;50.982;11.022;2023-08-06T00:25:56;22.90;75.90
28837;DHT22;50669;50.982;11.022;2023-08-06T00:28:22;22.90;75.90
28837;DHT22;50669;50.982;11.022;2023-08-06T00:30:53;22.90;75.90
28837;DHT22;50669;50.982;11.022;2023-08-06T00:33:19;22.90;75.90
28837;DHT22;50669;50.982;11.022;2023-08-06T00:35:47;22.90;75.90
28837;DHT22;50669;50.982;11.022;2023-08-06T00:38:13;22.90;75.90
28837;DHT22;50669;50.982;11.022;2023-08-06T00:40:41;22.90;75.90
28837;DHT22;50669;50.982;11.022;2023-08-06T00:43:09;22.90;75.90
28837;DHT22;50669;50.982;11.022;2023-08-06T00:45:37;22.90;75.90
28837;DHT22;50669;50.982;11.022;2023-08-06T00:48:06;22.90;75.90
28837;DHT22;50669;50.982;11.022;2023-08-06T00:50:32;22.90;75.90
28837;DHT22;50669;50.982;11.022;2023-08-06T00:53:03;22.80;75.90
28837;DHT22;50669;50.982;11.022;2023-08-06T00:55:29;22.90;75.90
28837;DHT22;50669;50.982;11.022;2023-08-06T00:57:55;22.90;75.90
28837;DHT22;50669;50.982;11.022;2023-08-06T01:00:26;22.90;75.90
28837;DHT22;50669;50.982;11.022;2023-08-06T01:02:53;22.90;76.00
28837;DHT22;50669;50.982;11.022;2023-08-06T01:05:22;22.90;76.00
28837;DHT22;50669;50.982;11.022;2023-08-06T01:15:50;22.90;76.10
28837;DHT22;50669;50.982;11.022;2023-08-06T01:18:17;22.90;76.00
28837;DHT22;50669;50.982;11.022;2023-08-06T01:20:42;22.80;76.00
28837;DHT22;50669;50.982;11.022;2023-08-06T01:23:08;22.80;76.70
28837;DHT22;50669;50.982;11.022;2023-08-06T01:25:36;22.90;76.00
28837;DHT22;50669;50.982;11.022;2023-08-06T01:28:18;22.80;76.00
28837;DHT22;50669;50.982;11.022;2023-08-06T01:30:49;22.80;76.00
28837;DHT22;50669;50.982;11.022;2023-08-06T01:33:21;22.80;76.00
28837;DHT22;50669;50.982;11.022;2023-08-06T01:35:52;22.90;76.10
28837;DHT22;50669;50.982;11.022;2023-08-06T01:38:19;22.80;76.00
28837;DHT22;50669;50.982;11.022;2023-08-06T01:40:45;22.80;76.00
28837;DHT22;50669;50.982;11.022;2023-08-06T01:43:10;22.80;76.00
28837;DHT22;50669;50.982;11.022;2023-08-06T01:45:36;22.80;76.00
28837;DHT22;50669;50.982;11.022;2023-08-06T01:48:04;22.80;76.00
28837;DHT22;50669;50.982;11.022;2023-08-06T01:50:30;22.80;76.00
28837;DHT22;50669;50.982;11.022;2023-08-06T01:52:58;22.80;76.00
28837;DHT22;50669;50.982;11.022;2023-08-06T01:55:23;22.80;76.00
28837;DHT22;50669;50.982;11.022;2023-08-06T01:57:49;22.80;76.10
28837;DHT22;50669;50.982;11.022;2023-08-06T02:00:15;22.80;76.00
28837;DHT22;50669;50.982;11.022;2023-08-06T02:02:40;22.80;76.10
28837;DHT22;50669;50.982;11.022;2023-08-06T02:05:09;22.80;76.10
28837;DHT22;50669;50.982;11.022;2023-08-06T02:07:34;22.80;76.10
28837;DHT22;50669;50.982;11.022;2023-08-06T02:10:00;22.80;76.00
28837;DHT22;50669;50.982;11.022;2023-08-06T02:12:26;22.80;76.10
28837;DHT22;50669;50.982;11.022;2023-08-06T02:14:54;22.80;76.10
28837;DHT22;50669;50.982;11.022;2023-08-06T02:17:19;22.80;76.10
28837;DHT22;50669;50.982;11.022;2023-08-06T02:19:45;22.80;76.00
28837;DHT22;50669;50.982;11.022;2023-08-06T02:22:10;22.80;76.10
28837;DHT22;50669;50.982;11.022;2023-08-06T02:24:36;22.80;76.10
28837;DHT22;50669;50.982;11.022;2023-08-06T02:27:02;22.80;76.10
28837;DHT22;50669;50.982;11.022;2023-08-06T02:29:32;22.80;76.10
28837;DHT22;50669;50.982;11.022;2023-08-06T02:31:59;22.80;76.10
28837;DHT22;50669;50.982;11.022;2023-08-06T02:34:27;22.80;76.10
28837;DHT22;50669;50.982;11.022;2023-08-06T02:36:55;22.80;76.10
28837;DHT22;50669;50.982;11.022;2023-08-06T02:39:26;22.80;76.10
28837;DHT22;50669;50.982;11.022;2023-08-06T02:41:51;22.80;76.20
28837;DHT22;50669;50.982;11.022;2023-08-06T02:44:19;22.80;76.10
28837;DHT22;50669;50.982;11.022;2023-08-06T02:46:45;22.80;76.20
28837;DHT22;50669;50.982;11.022;2023-08-06T02:49:11;22.80;76.20
28837;DHT22;50669;50.982;11.022;2023-08-06T02:51:36;22.70;76.10
28837;DHT22;50669;50.982;11.022;2023-08-06T02:54:04;22.80;76.20
28837;DHT22;50669;50.982;11.022;2023-08-06T02:56:30;22.80;76.20
28837;DHT22;50669;50.982;11.022;2023-08-06T02:58:56;22.70;76.10
28837;DHT22;50669;50.982;11.022;2023-08-06T03:01:26;22.70;76.10
28837;DHT22;50669;50.982;11.022;2023-08-06T03:03:53;22.80;76.90
28837;DHT22;50669;50.982;11.022;2023-08-06T03:06:19;22.80;76.20
28837;DHT22;50669;50.982;11.022;2023-08-06T03:08:45;22.80;76.10
28837;DHT22;50669;50.982;11.022;2023-08-06T03:11:13;22.70;76.10
28837;DHT22;50669;50.982;11.022;2023-08-06T03:13:38;22.80;76.20
28837;DHT22;50669;50.982;11.022;2023-08-06T03:16:06;22.70;76.10
28837;DHT22;50669;50.982;11.022;2023-08-06T03:18:32;22.70;76.20
28837;DHT22;50669;50.982;11.022;2023-08-06T03:21:00;22.70;76.10
28837;DHT22;50669;50.982;11.022;2023-08-06T03:23:28;22.70;76.10
28837;DHT22;50669;50.982;11.022;2023-08-06T03:25:56;22.70;76.20
28837;DHT22;50669;50.982;11.022;2023-08-06T03:28:21;22.70;76.20
28837;DHT22;50669;50.982;11.022;2023-08-06T03:30:47;22.70;76.20
28837;DHT22;50669;50.982;11.022;2023-08-06T03:33:13;22.70;76.20
28837;DHT22;50669;50.982;11.022;2023-08-06T03:35:39;22.70;76.20
28837;DHT22;50669;50.982;11.022;2023-08-06T03:38:05;22.70;76.20
28837;DHT22;50669;50.982;11.022;2023-08-06T03:40:30;22.70;76.20
28837;DHT22;50669;50.982;11.022;2023-08-06T03:42:56;22.70;76.20
28837;DHT22;50669;50.982;11.022;2023-08-06T03:45:22;22.70;76.30
28837;DHT22;50669;50.982;11.022;2023-08-06T03:47:47;22.70;76.20
28837;DHT22;50669;50.982;11.022;2023-08-06T03:50:15;22.70;76.30
28837;DHT22;50669;50.982;11.022;2023-08-06T03:52:41;22.70;76.20
28837;DHT22;50669;50.982;11.022;2023-08-06T03:55:09;22.70;76.20
28837;DHT22;50669;50.982;11.022;2023-08-06T03:57:35;22.70;76.30
28837;DHT22;50669;50.982;11.022;2023-08-06T04:00:04;22.70;76.30
28837;DHT22;50669;50.982;11.022;2023-08-06T04:02:29;22.70;76.20
28837;DHT22;50669;50.982;11.022;2023-08-06T04:05:00;22.70;77.10
28837;DHT22;50669;50.982;11.022;2023-08-06T04:07:26;22.70;76.30
28837;DHT22;50669;50.982;11.022;2023-08-06T04:09:57;22.70;76.30
28837;DHT22;50669;50.982;11.022;2023-08-06T04:12:23;22.70;76.30
28837;DHT22;50669;50.982;11.022;2023-08-06T04:14:49;22.70;76.30
28837;DHT22;50669;50.982;11.022;2023-08-06T04:17:15;22.70;76.20
28837;DHT22;50669;50.982;11.022;2023-08-06T04:19:51;22.70;76.30
28837;DHT22;50669;50.982;11.022;2023-08-06T04:22:20;22.70;76.20
28837;DHT22;50669;50.982;11.022;2023-08-06T04:24:46;22.70;76.30
28837;DHT22;50669;50.982;11.022;2023-08-06T04:27:13;22.70;76.30
28837;DHT22;50669;50.982;11.022;2023-08-06T04:29:38;22.70;76.30
28837;DHT22;50669;50.982;11.022;2023-08-06T04:32:07;22.70;76.30
28837;DHT22;50669;50.982;11.022;2023-08-06T04:34:34;22.70;76.30
28837;DHT22;50669;50.982;11.022;2023-08-06T04:37:00;22.70;76.30
28837;DHT22;50669;50.982;11.022;2023-08-06T04:39:26;22.70;76.30
28837;DHT22;50669;50.982;11.022;2023-08-06T04:41:52;22.70;76.30
28837;DHT22;50669;50.982;11.022;2023-08-06T04:44:20;22.70;76.30
28837;DHT22;50669;50.982;11.022;2023-08-06T04:46:48;22.70;76.30
28837;DHT22;50669;50.982;11.022;2023-08-06T04:49:14;22.70;76.30
28837;DHT22;50669;50.982;11.022;2023-08-06T04:51:42;22.70;76.30
28837;DHT22;50669;50.982;11.022;2023-08-06T04:54:07;22.70;76.30
28837;DHT22;50669;50.982;11.022;2023-08-06T04:56:35;22.70;76.30
28837;DHT22;50669;50.982;11.022;2023-08-06T04:59:01;22.70;76.30
28837;DHT22;50669;50.982;11.022;2023-08-06T05:01:29;22.70;76.40
28837;DHT22;50669;50.982;11.022;2023-08-06T05:03:55;22.70;76.40
28837;DHT22;50669;50.982;11.022;2023-08-06T05:06:23;22.70;76.30
28837;DHT22;50669;50.982;11.022;2023-08-06T05:08:48;22.70;76.30
28837;DHT22;50669;50.982;11.022;2023-08-06T05:11:14;22.70;76.30
28837;DHT22;50669;50.982;11.022;2023-08-06T05:13:42;22.70;76.30
28837;DHT22;50669;50.982;11.022;2023-08-06T05:16:10;22.60;76.30
28837;DHT22;50669;50.982;11.022;2023-08-06T05:18:35;22.70;76.30
28837;DHT22;50669;50.982;11.022;2023-08-06T05:21:03;22.70;76.30
28837;DHT22;50669;50.982;11.022;2023-08-06T05:23:28;22.70;76.30
28837;DHT22;50669;50.982;11.022;2023-08-06T05:25:54;22.70;76.40
28837;DHT22;50669;50.982;11.022;2023-08-06T05:28:24;22.60;76.30
28837;DHT22;50669;50.982;11.022;2023-08-06T05:30:52;22.60;76.30
28837;DHT22;50669;50.982;11.022;2023-08-06T05:33:17;22.70;76.40
28837;DHT22;50669;50.982;11.022;2023-08-06T05:35:43;22.70;76.40
28837;DHT22;50669;50.982;11.022;2023-08-06T05:38:09;22.60;77.00
28837;DHT22;50669;50.982;11.022;2023-08-06T05:40:34;22.70;76.40
28837;DHT22;50669;50.982;11.022;2023-08-06T05:43:00;22.60;76.30
28837;DHT22;50669;50.982;11.022;2023-08-06T05:45:28;22.60;76.30
28837;DHT22;50669;50.982;11.022;2023-08-06T05:47:54;22.70;76.30
28837;DHT22;50669;50.982;11.022;2023-08-06T05:50:23;22.70;76.40
28837;DHT22;50669;50.982;11.022;2023-08-06T05:52:48;22.60;76.30
28837;DHT22;50669;50.982;11.022;2023-08-06T05:55:19;22.70;76.40
28837;DHT22;50669;50.982;11.022;2023-08-06T05:57:45;22.60;76.30
28837;DHT22;50669;50.982;11.022;2023-08-06T06:00:11;22.60;76.30
28837;DHT22;50669;50.982;11.022;2023-08-06T06:02:36;22.70;76.40
28837;DHT22;50669;50.982;11.022;2023-08-06T06:05:02;22.70;76.30
28837;DHT22;50669;50.982;11.022;2023-08-06T06:07:28;22.60;76.30
28837;DHT22;50669;50.982;11.022;2023-08-06T06:09:53;22.70;76.40
28837;DHT22;50669;50.982;11.022;2023-08-06T06:12:19;22.70;76.40
28837;DHT22;50669;50.982;11.022;2023-08-06T06:14:45;22.60;76.30
28837;DHT22;50669;50.982;11.022;2023-08-06T06:17:11;22.70;76.40
28837;DHT22;50669;50.982;11.022;2023-08-06T06:19:36;22.70;76.40
28837;DHT22;50669;50.982;11.022;2023-08-06T06:22:02;22.70;76.30
28837;DHT22;50669;50.982;11.022;2023-08-06T06:24:27;22.70;76.30
28837;DHT22;50669;50.982;11.022;2023-08-06T06:26:58;22.70;76.30
28837;DHT22;50669;50.982;11.022;2023-08-06T06:29:26;22.70;76.30
28837;DHT22;50669;50.982;11.022;2023-08-06T06:31:51;22.70;76.30
28837;DHT22;50669;50.982;11.022;2023-08-06T06:34:20;22.70;76.20
28837;DHT22;50669;50.982;11.022;2023-08-06T06:36:45;22.60;76.10
28837;DHT22;50669;50.982;11.022;2023-08-06T06:39:14;22.70;76.20
28837;DHT22;50669;50.982;11.022;2023-08-06T06:41:44;22.70;76.30
28837;DHT22;50669;50.982;11.022;2023-08-06T06:44:12;22.70;76.30
28837;DHT22;50669;50.982;11.022;2023-08-06T06:46:40;22.70;76.30
28837;DHT22;50669;50.982;11.022;2023-08-06T06:49:06;22.70;76.30
28837;DHT22;50669;50.982;11.022;2023-08-06T06:51:34;22.70;76.30
28837;DHT22;50669;50.982;11.022;2023-08-06T06:54:02;22.70;76.30
28837;DHT22;50669;50.982;11.022;2023-08-06T06:56:28;22.60;76.20
28837;DHT22;50669;50.982;11.022;2023-08-06T06:58:53;22.70;76.30
28837;DHT22;50669;50.982;11.022;2023-08-06T07:01:21;22.70;76.30
28837;DHT22;50669;50.982;11.022;2023-08-06T07:03:47;22.70;76.20
28837;DHT22;50669;50.982;11.022;2023-08-06T07:06:17;22.70;76.30
28837;DHT22;50669;50.982;11.022;2023-08-06T07:08:44;22.70;76.30
28837;DHT22;50669;50.982;11.022;2023-08-06T07:11:10;22.70;76.30
28837;DHT22;50669;50.982;11.022;2023-08-06T07:13:35;22.70;76.30
28837;DHT22;50669;50.982;11.022;2023-08-06T07:16:05;22.70;76.30
28837;DHT22;50669;50.982;11.022;2023-08-06T07:18:33;22.70;76.30
28837;DHT22;50669;50.982;11.022;2023-08-06T07:21:01;22.70;76.30
28837;DHT22;50669;50.982;11.022;2023-08-06T07:23:26;22.70;76.30
28837;DHT22;50669;50.982;11.022;2023-08-06T07:25:52;22.70;76.30
28837;DHT22;50669;50.982;11.022;2023-08-06T07:28:20;22.70;76.30
28837;DHT22;50669;50.982;11.022;2023-08-06T07:30:49;22.70;76.30
28837;DHT22;50669;50.982;11.022;2023-08-06T07:33:17;22.70;76.20
28837;DHT22;50669;50.982;11.022;2023-08-06T07:35:47;22.70;76.30
28837;DHT22;50669;50.982;11.022;2023-08-06T07:38:14;22.70;76.20
28837;DHT22;50669;50.982;11.022;2023-08-06T07:40:42;22.70;76.30
28837;DHT22;50669;50.982;11.022;2023-08-06T07:43:10;22.70;76.10
28837;DHT22;50669;50.982;11.022;2023-08-06T07:45:36;22.70;76.10
28837;DHT22;50669;50.982;11.022;2023-08-06T07:48:05;22.70;76.10
28837;DHT22;50669;50.982;11.022;2023-08-06T07:50:30;22.70;76.10
28837;DHT22;50669;50.982;11.022;2023-08-06T07:52:56;22.70;76.10
28837;DHT22;50669;50.982;11.022;2023-08-06T07:55:22;22.70;76.10
28837;DHT22;50669;50.982;11.022;2023-08-06T07:57:47;22.70;76.10
28837;DHT22;50669;50.982;11.022;2023-08-06T08:00:13;22.70;76.10
28837;DHT22;50669;50.982;11.022;2023-08-06T08:02:39;22.70;76.10
28837;DHT22;50669;50.982;11.022;2023-08-06T08:05:04;22.70;76.20
28837;DHT22;50669;50.982;11.022;2023-08-06T08:07:32;22.70;76.10
28837;DHT22;50669;50.982;11.022;2023-08-06T08:10:00;22.70;76.10
28837;DHT22;50669;50.982;11.022;2023-08-06T08:12:26;22.70;76.10
28837;DHT22;50669;50.982;11.022;2023-08-06T08:14:52;22.70;76.10
28837;DHT22;50669;50.982;11.022;2023-08-06T08:17:17;22.80;76.20
28837;DHT22;50669;50.982;11.022;2023-08-06T08:19:45;22.80;76.20
28837;DHT22;50669;50.982;11.022;2023-08-06T08:22:13;22.80;76.20
28837;DHT22;50669;50.982;11.022;2023-08-06T08:24:39;22.70;76.10
28837;DHT22;50669;50.982;11.022;2023-08-06T08:27:05;22.70;76.10
28837;DHT22;50669;50.982;11.022;2023-08-06T08:29:31;22.70;76.10
28837;DHT22;50669;50.982;11.022;2023-08-06T08:31:56;22.80;76.10
28837;DHT22;50669;50.982;11.022;2023-08-06T08:34:24;22.70;76.10
28837;DHT22;50669;50.982;11.022;2023-08-06T08:36:50;22.80;76.20
28837;DHT22;50669;50.982;11.022;2023-08-06T08:39:16;22.80;76.10
28837;DHT22;50669;50.982;11.022;2023-08-06T08:41:42;22.80;76.20
28837;DHT22;50669;50.982;11.022;2023-08-06T08:44:10;22.80;76.10
28837;DHT22;50669;50.982;11.022;2023-08-06T08:46:40;22.70;76.00
28837;DHT22;50669;50.982;11.022;2023-08-06T08:49:06;22.80;76.10
28837;DHT22;50669;50.982;11.022;2023-08-06T08:51:34;22.80;76.00
28837;DHT22;50669;50.982;11.022;2023-08-06T08:54:03;22.80;76.10
28837;DHT22;50669;50.982;11.022;2023-08-06T08:56:31;22.80;76.10
28837;DHT22;50669;50.982;11.022;2023-08-06T08:59:04;22.80;76.10
28837;DHT22;50669;50.982;11.022;2023-08-06T09:01:32;22.80;76.10
28837;DHT22;50669;50.982;11.022;2023-08-06T09:04:03;22.80;76.10
28837;DHT22;50669;50.982;11.022;2023-08-06T09:06:33;22.80;76.10
28837;DHT22;50669;50.982;11.022;2023-08-06T09:09:08;22.80;76.10
28837;DHT22;50669;50.982;11.022;2023-08-06T09:11:39;22.80;76.00
28837;DHT22;50669;50.982;11.022;2023-08-06T09:14:07;22.80;76.00
28837;DHT22;50669;50.982;11.022;2023-08-06T09:16:37;22.80;76.00
28837;DHT22;50669;50.982;11.022;2023-08-06T09:19:12;22.80;76.00
28837;DHT22;50669;50.982;11.022;2023-08-06T09:21:41;22.80;76.00
28837;DHT22;50669;50.982;11.022;2023-08-06T09:24:15;22.80;76.00
28837;DHT22;50669;50.982;11.022;2023-08-06T09:26:44;22.80;76.00
28837;DHT22;50669;50.982;11.022;2023-08-06T09:29:12;22.80;76.00
28837;DHT22;50669;50.982;11.022;2023-08-06T09:34:18;22.80;76.00
28837;DHT22;50669;50.982;11.022;2023-08-06T09:36:49;22.80;75.90
28837;DHT22;50669;50.982;11.022;2023-08-06T09:39:20;22.80;75.90
28837;DHT22;50669;50.982;11.022;2023-08-06T09:41:47;22.90;76.00
28837;DHT22;50669;50.982;11.022;2023-08-06T09:44:20;22.90;76.00
28837;DHT22;50669;50.982;11.022;2023-08-06T09:46:51;22.80;75.90
28837;DHT22;50669;50.982;11.022;2023-08-06T09:49:25;22.90;76.00
28837;DHT22;50669;50.982;11.022;2023-08-06T09:51:51;22.90;76.00
28837;DHT22;50669;50.982;11.022;2023-08-06T09:54:19;22.90;76.00
28837;DHT22;50669;50.982;11.022;2023-08-06T09:56:45;22.90;76.70
28837;DHT22;50669;50.982;11.022;2023-08-06T09:59:10;22.90;75.90
28837;DHT22;50669;50.982;11.022;2023-08-06T10:01:39;22.90;76.00
28837;DHT22;50669;50.982;11.022;2023-08-06T10:04:06;22.90;75.90
28837;DHT22;50669;50.982;11.022;2023-08-06T10:06:37;22.90;75.90
28837;DHT22;50669;50.982;11.022;2023-08-06T10:09:06;22.90;75.90
28837;DHT22;50669;50.982;11.022;2023-08-06T10:11:33;22.90;76.00
28837;DHT22;50669;50.982;11.022;2023-08-06T10:14:04;22.90;76.00
28837;DHT22;50669;50.982;11.022;2023-08-06T10:16:34;22.90;75.90
28837;DHT22;50669;50.982;11.022;2023-08-06T10:19:02;22.90;75.90
28837;DHT22;50669;50.982;11.022;2023-08-06T10:21:28;22.90;75.90
28837;DHT22;50669;50.982;11.022;2023-08-06T10:23:56;22.90;75.90
28837;DHT22;50669;50.982;11.022;2023-08-06T10:26:26;22.90;75.90
28837;DHT22;50669;50.982;11.022;2023-08-06T10:28:52;22.90;75.90
28837;DHT22;50669;50.982;11.022;2023-08-06T10:31:18;22.90;75.90
28837;DHT22;50669;50.982;11.022;2023-08-06T10:33:46;22.90;75.90
28837;DHT22;50669;50.982;11.022;2023-08-06T10:36:12;22.90;75.90
28837;DHT22;50669;50.982;11.022;2023-08-06T10:38:48;22.90;75.90
28837;DHT22;50669;50.982;11.022;2023-08-06T10:41:28;22.90;75.90
28837;DHT22;50669;50.982;11.022;2023-08-06T10:44:07;22.90;75.90
28837;DHT22;50669;50.982;11.022;2023-08-06T10:46:35;22.90;75.90
28837;DHT22;50669;50.982;11.022;2023-08-06T10:49:01;22.90;75.90
28837;DHT22;50669;50.982;11.022;2023-08-06T10:51:27;22.90;75.90
28837;DHT22;50669;50.982;11.022;2023-08-06T10:53:53;22.90;75.90
28837;DHT22;50669;50.982;11.022;2023-08-06T10:56:23;22.90;75.90
28837;DHT22;50669;50.982;11.022;2023-08-06T10:58:50;22.90;75.90
28837;DHT22;50669;50.982;11.022;2023-08-06T11:01:17;22.90;75.90
28837;DHT22;50669;50.982;11.022;2023-08-06T11:03:47;23.00;76.00
28837;DHT22;50669;50.982;11.022;2023-08-06T11:06:22;22.90;75.90
28837;DHT22;50669;50.982;11.022;2023-08-06T11:08:54;23.00;75.80
28837;DHT22;50669;50.982;11.022;2023-08-06T11:11:26;23.00;75.80
28837;DHT22;50669;50.982;11.022;2023-08-06T11:13:53;23.00;75.90
28837;DHT22;50669;50.982;11.022;2023-08-06T11:16:24;23.00;75.80
28837;DHT22;50669;50.982;11.022;2023-08-06T11:18:53;22.90;75.80
28837;DHT22;50669;50.982;11.022;2023-08-06T11:21:23;23.00;76.60
28837;DHT22;50669;50.982;11.022;2023-08-06T11:23:51;23.00;75.80
28837;DHT22;50669;50.982;11.022;2023-08-06T11:26:21;23.00;75.80
28837;DHT22;50669;50.982;11.022;2023-08-06T11:28:51;23.00;75.80
28837;DHT22;50669;50.982;11.022;2023-08-06T11:31:25;23.00;75.80
28837;DHT22;50669;50.982;11.022;2023-08-06T11:33:54;23.00;75.80
28837;DHT22;50669;50.982;11.022;2023-08-06T11:36:33;23.00;75.80
28837;DHT22;50669;50.982;11.022;2023-08-06T11:39:00;23.00;75.80
28837;DHT22;50669;50.982;11.022;2023-08-06T11:41:31;23.00;75.80
28837;DHT22;50669;50.982;11.022;2023-08-06T11:43:58;23.00;75.80
28837;DHT22;50669;50.982;11.022;2023-08-06T11:46:23;23.00;75.80
28837;DHT22;50669;50.982;11.022;2023-08-06T11:48:54;23.00;75.80
28837;DHT22;50669;50.982;11.022;2023-08-06T11:51:26;23.00;75.80
28837;DHT22;50669;50.982;11.022;2023-08-06T11:53:58;23.00;75.70
28837;DHT22;50669;50.982;11.022;2023-08-06T11:56:29;23.00;75.70
28837;DHT22;50669;50.982;11.022;2023-08-06T11:58:55;23.00;75.60
28837;DHT22;50669;50.982;11.022;2023-08-06T12:01:21;23.00;75.70
28837;DHT22;50669;50.982;11.022;2023-08-06T12:03:46;23.00;75.70
28837;DHT22;50669;50.982;11.022;2023-08-06T12:06:12;23.00;75.70
28837;DHT22;50669;50.982;11.022;2023-08-06T12:08:37;23.00;75.70
28837;DHT22;50669;50.982;11.022;2023-08-06T12:11:03;23.00;75.80
28837;DHT22;50669;50.982;11.022;2023-08-06T12:13:29;23.00;75.80
28837;DHT22;50669;50.982;11.022;2023-08-06T12:15:55;23.00;75.80
28837;DHT22;50669;50.982;11.022;2023-08-06T12:18:25;23.00;75.80
28837;DHT22;50669;50.982;11.022;2023-08-06T12:20:50;23.00;75.80
28837;DHT22;50669;50.982;11.022;2023-08-06T12:23:16;23.00;75.90
28837;DHT22;50669;50.982;11.022;2023-08-06T12:25:44;23.00;75.90
28837;DHT22;50669;50.982;11.022;2023-08-06T12:28:12;23.00;75.80
28837;DHT22;50669;50.982;11.022;2023-08-06T12:30:38;23.00;75.90
28837;DHT22;50669;50.982;11.022;2023-08-06T12:33:07;23.00;75.90
28837;DHT22;50669;50.982;11.022;2023-08-06T12:35:33;23.00;75.80
28837;DHT22;50669;50.982;11.022;2023-08-06T12:38:01;23.00;75.80
28837;DHT22;50669;50.982;11.022;2023-08-06T12:40:27;23.00;75.80
28837;DHT22;50669;50.982;11.022;2023-08-06T12:42:53;23.00;75.80
28837;DHT22;50669;50.982;11.022;2023-08-06T12:45:21;23.00;76.60
28837;DHT22;50669;50.982;11.022;2023-08-06T12:47:47;23.00;76.50
28837;DHT22;50669;50.982;11.022;2023-08-06T12:50:14;23.00;75.80
28837;DHT22;50669;50.982;11.022;2023-08-06T12:52:39;23.00;75.80
28837;DHT22;50669;50.982;11.022;2023-08-06T12:55:05;23.00;75.80
28837;DHT22;50669;50.982;11.022;2023-08-06T12:57:33;23.00;75.80
28837;DHT22;50669;50.982;11.022;2023-08-06T13:00:02;23.00;75.80
28837;DHT22;50669;50.982;11.022;2023-08-06T13:02:32;23.00;75.80
28837;DHT22;50669;50.982;11.022;2023-08-06T13:05:00;23.00;75.80
28837;DHT22;50669;50.982;11.022;2023-08-06T13:07:31;23.00;75.80
28837;DHT22;50669;50.982;11.022;2023-08-06T13:09:58;23.00;75.80
28837;DHT22;50669;50.982;11.022;2023-08-06T13:12:24;23.10;75.80
28837;DHT22;50669;50.982;11.022;2023-08-06T13:14:52;23.00;75.70
28837;DHT22;50669;50.982;11.022;2023-08-06T13:17:18;23.10;75.80
28837;DHT22;50669;50.982;11.022;2023-08-06T13:19:44;23.10;75.70
28837;DHT22;50669;50.982;11.022;2023-08-06T13:22:12;23.10;75.70
28837;DHT22;50669;50.982;11.022;2023-08-06T13:24:38;23.10;75.70
28837;DHT22;50669;50.982;11.022;2023-08-06T13:27:03;23.10;75.70
28837;DHT22;50669;50.982;11.022;2023-08-06T13:29:31;23.10;75.70
28837;DHT22;50669;50.982;11.022;2023-08-06T13:31:57;23.10;75.70
28837;DHT22;50669;50.982;11.022;2023-08-06T13:34:27;23.10;75.70
28837;DHT22;50669;50.982;11.022;2023-08-06T13:36:53;23.10;75.60
28837;DHT22;50669;50.982;11.022;2023-08-06T13:39:18;23.10;75.60
28837;DHT22;50669;50.982;11.022;2023-08-06T13:41:45;23.10;75.60
28837;DHT22;50669;50.982;11.022;2023-08-06T13:44:13;23.10;75.70
28837;DHT22;50669;50.982;11.022;2023-08-06T13:46:43;23.10;75.60
28837;DHT22;50669;50.982;11.022;2023-08-06T13:49:09;23.10;75.60
28837;DHT22;50669;50.982;11.022;2023-08-06T13:51:36;23.10;75.60
28837;DHT22;50669;50.982;11.022;2023-08-06T13:54:03;23.10;75.60
28837;DHT22;50669;50.982;11.022;2023-08-06T13:56:29;23.10;75.60
28837;DHT22;50669;50.982;11.022;2023-08-06T13:58:56;23.10;76.30
28837;DHT22;50669;50.982;11.022;2023-08-06T14:01:23;23.10;75.60
28837;DHT22;50669;50.982;11.022;2023-08-06T14:03:49;23.10;75.60
28837;DHT22;50669;50.982;11.022;2023-08-06T14:06:17;23.10;75.50
28837;DHT22;50669;50.982;11.022;2023-08-06T14:08:42;23.10;75.60
28837;DHT22;50669;50.982;11.022;2023-08-06T14:11:10;23.10;75.50
28837;DHT22;50669;50.982;11.022;2023-08-06T14:13:38;23.20;75.60
28837;DHT22;50669;50.982;11.022;2023-08-06T14:16:08;23.20;75.60
28837;DHT22;50669;50.982;11.022;2023-08-06T14:18:36;23.20;75.60
28837;DHT22;50669;50.982;11.022;2023-08-06T14:21:03;23.20;75.50
28837;DHT22;50669;50.982;11.022;2023-08-06T14:23:29;23.20;75.40
28837;DHT22;50669;50.982;11.022;2023-08-06T14:25:57;23.20;75.40
28837;DHT22;50669;50.982;11.022;2023-08-06T14:28:23;23.20;75.40
28837;DHT22;50669;50.982;11.022;2023-08-06T14:30:51;23.20;75.40
28837;DHT22;50669;50.982;11.022;2023-08-06T14:33:19;23.20;75.50
28837;DHT22;50669;50.982;11.022;2023-08-06T14:35:45;23.20;75.50
28837;DHT22;50669;50.982;11.022;2023-08-06T14:38:10;23.20;75.50
28837;DHT22;50669;50.982;11.022;2023-08-06T14:40:38;23.20;75.40
28837;DHT22;50669;50.982;11.022;2023-08-06T14:43:12;23.20;75.40
28837;DHT22;50669;50.982;11.022;2023-08-06T14:45:40;23.20;75.40
28837;DHT22;50669;50.982;11.022;2023-08-06T14:48:06;23.20;75.40
28837;DHT22;50669;50.982;11.022;2023-08-06T14:50:32;23.20;75.40
28837;DHT22;50669;50.982;11.022;2023-08-06T14:52:57;23.20;75.40
28837;DHT22;50669;50.982;11.022;2023-08-06T14:55:27;23.30;75.50
28837;DHT22;50669;50.982;11.022;2023-08-06T14:57:55;23.20;75.40
28837;DHT22;50669;50.982;11.022;2023-08-06T15:00:21;23.20;75.40
28837;DHT22;50669;50.982;11.022;2023-08-06T15:02:49;23.20;75.40
28837;DHT22;50669;50.982;11.022;2023-08-06T15:05:15;23.20;75.40
28837;DHT22;50669;50.982;11.022;2023-08-06T15:07:41;23.20;75.40
28837;DHT22;50669;50.982;11.022;2023-08-06T15:10:07;23.20;75.50
28837;DHT22;50669;50.982;11.022;2023-08-06T15:12:32;23.20;75.60
28837;DHT22;50669;50.982;11.022;2023-08-06T15:15:00;23.20;75.60
28837;DHT22;50669;50.982;11.022;2023-08-06T15:17:27;23.20;75.60
28837;DHT22;50669;50.982;11.022;2023-08-06T15:19:58;23.20;75.60
28837;DHT22;50669;50.982;11.022;2023-08-06T15:22:26;23.20;75.60
28837;DHT22;50669;50.982;11.022;2023-08-06T15:24:52;23.20;76.30
28837;DHT22;50669;50.982;11.022;2023-08-06T15:27:20;23.20;75.60